createdAt,value
2023-02-14T00:02:24.386Z,28.10
2023-02-14T00:04:52.586Z,26.63
2023-02-14T00:07:19.409Z,23.33
2023-02-14T00:09:46.180Z,25.70
2023-02-14T00:12:13.192Z,31.58
2023-02-14T00:14:40.169Z,24.90
2023-02-14T00:17:06.950Z,26.25
2023-02-14T00:19:34.714Z,26.00
2023-02-14T00:22:03.194Z,25.98
2023-02-14T00:24:30.378Z,23.20
2023-02-14T00:26:57.086Z,21.88
2023-02-14T00:29:27.033Z,22.38
2023-02-14T00:31:53.831Z,25.98
2023-02-14T00:34:20.784Z,25.98
2023-02-14T00:36:47.866Z,27.00
2023-02-14T00:39:16.996Z,25.05
2023-02-14T00:41:44.306Z,23.85
2023-02-14T00:44:12.826Z,25.80
2023-02-14T00:46:41.844Z,26.45
2023-02-14T00:51:35.353Z,25.92
2023-02-14T00:54:02.140Z,24.13
2023-02-14T00:56:30.222Z,26.17
2023-02-14T00:58:57.019Z,25.93
2023-02-14T01:01:23.845Z,24.23
2023-02-14T01:03:50.683Z,21.83
2023-02-14T01:06:17.519Z,23.75
2023-02-14T01:08:44.296Z,25.48
2023-02-14T01:11:14.027Z,26.15
2023-02-14T01:13:43.090Z,20.90
2023-02-14T01:18:38.994Z,19.90
2023-02-14T01:21:14.168Z,22.35
2023-02-14T01:23:41.215Z,24.17
2023-02-14T01:26:08.608Z,20.95
2023-02-14T01:28:35.816Z,22.20
2023-02-14T01:31:09.688Z,23.08
2023-02-14T01:33:37.196Z,16.58
2023-02-14T01:36:04.369Z,20.83
2023-02-14T01:38:31.180Z,17.70
2023-02-14T01:40:58.701Z,20.45
2023-02-14T01:43:25.795Z,22.02
2023-02-14T01:45:52.607Z,22.50
2023-02-14T01:48:22.776Z,21.38
2023-02-14T01:50:51.323Z,20.85
2023-02-14T01:53:24.597Z,19.90
2023-02-14T01:55:58.245Z,19.30
2023-02-14T01:58:29.619Z,19.13
2023-02-14T02:00:56.587Z,19.00
2023-02-14T02:03:28.124Z,51.33
2023-02-14T02:05:59.525Z,38.22
2023-02-14T02:08:26.691Z,58.28
2023-02-14T02:10:53.625Z,58.63
2023-02-14T02:13:22.527Z,49.38
2023-02-14T02:16:04.469Z,34.53
2023-02-14T02:18:44.202Z,14.60
2023-02-14T02:21:57.715Z,24.42
2023-02-14T02:24:32.941Z,16.75
2023-02-14T02:27:29.262Z,15.80
2023-02-14T02:30:44.394Z,16.13
2023-02-14T02:33:42.132Z,14.43
2023-02-14T02:36:32.713Z,14.63
2023-02-14T02:39:15.532Z,14.77
2023-02-14T02:41:57.016Z,14.32
2023-02-14T02:44:31.899Z,13.90
2023-02-14T02:47:04.629Z,14.73
2023-02-14T02:49:41.227Z,15.95
2023-02-14T02:52:15.920Z,13.93
2023-02-14T02:54:44.903Z,14.95
2023-02-14T02:59:43.914Z,13.43
2023-02-14T03:02:13.628Z,14.98
2023-02-14T03:04:45.365Z,15.27
2023-02-14T03:07:13.707Z,14.10
2023-02-14T03:09:57.597Z,19.27
2023-02-14T03:12:41.943Z,13.93
2023-02-14T03:15:14.929Z,15.55
2023-02-14T03:17:47.373Z,14.10
2023-02-14T03:20:20.546Z,13.90
2023-02-14T03:22:56.627Z,16.77
2023-02-14T03:25:38.699Z,17.50
2023-02-14T03:28:15.097Z,16.05
2023-02-14T03:30:49.727Z,16.80
2023-02-14T03:33:23.661Z,18.25
2023-02-14T03:35:57.134Z,20.17
2023-02-14T03:38:33.535Z,17.83
2023-02-14T03:41:03.797Z,15.25
2023-02-14T03:43:34.385Z,15.77
2023-02-14T03:46:05.240Z,16.35
2023-02-14T03:48:33.517Z,17.58
2023-02-14T03:51:01.451Z,17.20
2023-02-14T03:53:32.888Z,15.53
2023-02-14T03:56:08.324Z,14.00
2023-02-14T03:58:38.871Z,14.30
2023-02-14T04:01:11.391Z,14.95
2023-02-14T04:03:40.791Z,13.82
2023-02-14T04:06:07.739Z,16.58
2023-02-14T04:08:35.868Z,18.67
2023-02-14T04:11:04.989Z,18.23
2023-02-14T04:15:58.859Z,17.85
2023-02-14T04:18:25.753Z,23.27
2023-02-14T04:20:52.667Z,24.10
2023-02-14T04:23:19.504Z,19.35
2023-02-14T04:25:47.614Z,25.75
2023-02-14T04:28:14.524Z,26.67
2023-02-14T04:30:41.270Z,25.02
2023-02-14T04:33:08.083Z,27.90
2023-02-14T04:35:35.237Z,24.00
2023-02-14T04:38:02.044Z,24.52
2023-02-14T04:40:29.282Z,26.48
2023-02-14T04:42:58.682Z,25.55
2023-02-14T04:45:25.511Z,23.77
2023-02-14T04:47:52.215Z,25.20
2023-02-14T04:50:19.596Z,21.60
2023-02-14T04:52:46.546Z,23.83
2023-02-14T04:55:13.329Z,21.95
2023-02-14T04:57:40.104Z,25.88
2023-02-14T05:00:09.370Z,22.17
2023-02-14T05:02:36.814Z,21.75
2023-02-14T05:05:05.334Z,21.20
2023-02-14T05:07:32.085Z,20.15
2023-02-14T05:09:58.840Z,19.30
2023-02-14T05:12:25.599Z,21.05
2023-02-14T05:14:52.403Z,21.58
2023-02-14T05:17:20.481Z,18.40
2023-02-14T05:19:47.234Z,24.50
2023-02-14T05:22:14.037Z,22.88
2023-02-14T05:24:40.837Z,21.40
2023-02-14T05:27:07.557Z,21.95
2023-02-14T05:29:34.291Z,24.95
2023-02-14T05:32:01.155Z,23.80
2023-02-14T05:34:29.483Z,29.70
2023-02-14T05:36:56.174Z,28.52
2023-02-14T05:39:22.972Z,28.25
2023-02-14T05:41:51.848Z,28.23
2023-02-14T05:44:18.640Z,29.70
2023-02-14T05:46:45.391Z,29.20
2023-02-14T05:49:12.130Z,28.58
2023-02-14T05:51:40.202Z,27.25
2023-02-14T05:54:09.404Z,31.13
2023-02-14T05:56:37.622Z,26.63
2023-02-14T05:59:04.354Z,29.33
2023-02-14T06:01:31.063Z,25.95
2023-02-14T06:03:57.790Z,27.33
2023-02-14T06:06:24.601Z,24.70
2023-02-14T06:08:52.674Z,20.13
2023-02-14T06:11:19.388Z,29.60
2023-02-14T06:13:46.152Z,22.75
2023-02-14T06:16:12.961Z,26.65
2023-02-14T06:18:39.757Z,22.92
2023-02-14T06:21:06.778Z,21.40
2023-02-14T06:23:33.514Z,22.52
2023-02-14T06:26:01.614Z,25.85
2023-02-14T06:28:28.388Z,23.70
2023-02-14T06:30:55.320Z,25.73
2023-02-14T06:33:22.242Z,22.20
2023-02-14T06:35:49.047Z,25.20
2023-02-14T06:38:17.934Z,26.58
2023-02-14T06:40:44.699Z,24.48
2023-02-14T06:43:12.769Z,23.88
2023-02-14T06:45:40.748Z,27.20
2023-02-14T06:48:07.514Z,26.85
2023-02-14T06:50:34.844Z,23.23
2023-02-14T06:53:01.696Z,28.00
2023-02-14T06:55:28.480Z,24.58
2023-02-14T06:57:55.446Z,27.42
2023-02-14T07:00:23.850Z,22.48
2023-02-14T07:02:50.643Z,31.38
2023-02-14T07:05:17.643Z,27.05
2023-02-14T07:07:45.620Z,27.52
2023-02-14T07:10:13.207Z,26.42
2023-02-14T07:12:39.958Z,31.23
2023-02-14T07:15:07.776Z,23.58
2023-02-14T07:17:36.576Z,23.35
2023-02-14T07:20:04.503Z,23.65
2023-02-14T07:22:31.227Z,22.92
2023-02-14T07:24:58.050Z,27.88
2023-02-14T07:27:26.237Z,28.73
2023-02-14T07:29:53.058Z,28.63
2023-02-14T07:32:20.049Z,25.83
2023-02-14T07:34:49.230Z,33.70
2023-02-14T07:39:43.124Z,32.05
2023-02-14T07:42:09.948Z,34.72
2023-02-14T07:44:37.134Z,32.85
2023-02-14T07:47:04.163Z,30.73
2023-02-14T07:49:30.909Z,33.10
2023-02-14T07:51:59.256Z,30.38
2023-02-14T07:54:27.071Z,34.40
2023-02-14T07:56:54.188Z,34.70
2023-02-14T07:59:21.478Z,32.33
2023-02-14T08:01:48.297Z,38.55
2023-02-14T08:04:15.077Z,33.60
2023-02-14T08:06:42.940Z,32.92
2023-02-14T08:09:11.043Z,35.80
2023-02-14T08:11:38.288Z,31.43
2023-02-14T08:14:05.362Z,28.40
2023-02-14T08:16:32.214Z,37.20
2023-02-14T08:18:58.979Z,28.42
2023-02-14T08:21:25.858Z,34.78
2023-02-14T08:23:52.583Z,29.02
2023-02-14T08:26:20.722Z,34.17
2023-02-14T08:28:47.516Z,26.93
2023-02-14T08:31:34.301Z,22.88
2023-02-14T08:34:02.230Z,26.47
2023-02-14T08:36:28.997Z,29.38
2023-02-14T08:38:56.089Z,25.35
2023-02-14T08:41:24.696Z,28.92
2023-02-14T08:43:51.903Z,27.02
2023-02-14T08:46:18.722Z,30.00
2023-02-14T08:48:45.787Z,32.05
2023-02-14T08:51:14.136Z,34.15
2023-02-14T08:53:42.243Z,35.72
2023-02-14T08:56:12.732Z,32.37
2023-02-14T08:58:41.004Z,25.70
2023-02-14T09:01:11.868Z,35.47
2023-02-14T09:03:39.353Z,27.77
2023-02-14T09:06:08.091Z,25.00
2023-02-14T09:08:35.709Z,27.85
2023-02-14T09:11:07.255Z,32.13
2023-02-14T09:13:34.063Z,31.20
2023-02-14T09:16:05.176Z,34.47
2023-02-14T09:18:32.369Z,31.38
2023-02-14T09:20:59.494Z,35.10
2023-02-14T09:23:26.509Z,34.53
2023-02-14T09:26:00.617Z,28.83
2023-02-14T09:28:27.717Z,32.45
2023-02-14T09:30:54.680Z,36.63
2023-02-14T09:33:22.868Z,32.72
2023-02-14T09:35:49.714Z,30.07
2023-02-14T09:38:16.724Z,30.52
2023-02-14T09:40:43.600Z,34.00
2023-02-14T09:43:15.376Z,30.33
2023-02-14T09:45:46.778Z,31.58
2023-02-14T09:48:26.103Z,28.33
2023-02-14T09:50:58.060Z,27.55
2023-02-14T09:53:27.545Z,25.83
2023-02-14T09:56:06.588Z,24.48
2023-02-14T09:58:36.328Z,29.63
2023-02-14T10:01:10.806Z,24.40
2023-02-14T10:03:57.490Z,25.42
2023-02-14T10:06:50.316Z,23.27
2023-02-14T10:09:33.366Z,24.88
2023-02-14T10:12:01.435Z,26.80
2023-02-14T10:14:31.618Z,23.57
2023-02-14T10:17:02.443Z,26.05
2023-02-14T10:19:34.706Z,26.02
2023-02-14T10:22:04.128Z,23.20
2023-02-14T10:24:37.357Z,24.85
2023-02-14T10:27:11.134Z,25.17
2023-02-14T10:29:38.295Z,21.35
2023-02-14T10:32:09.197Z,24.05
2023-02-14T10:34:41.780Z,24.20
2023-02-14T10:37:27.686Z,25.00
2023-02-14T10:40:09.562Z,25.75
2023-02-14T10:42:46.857Z,26.00
2023-02-14T10:45:22.686Z,25.33
2023-02-14T10:48:00.244Z,29.23
2023-02-14T10:50:37.148Z,25.08
2023-02-14T10:53:12.665Z,24.80
2023-02-14T10:55:47.135Z,21.50
2023-02-14T10:58:17.387Z,22.55
2023-02-14T11:00:57.946Z,22.00
2023-02-14T11:03:25.990Z,23.15
2023-02-14T11:05:54.067Z,22.35
2023-02-14T11:08:26.842Z,22.10
2023-02-14T11:10:55.725Z,22.80
2023-02-14T11:13:34.727Z,23.63
2023-02-14T11:16:04.370Z,24.08
2023-02-14T11:18:32.833Z,19.75
2023-02-14T11:21:03.474Z,23.33
2023-02-14T11:23:37.732Z,23.20
2023-02-14T11:26:08.411Z,22.35
2023-02-14T11:28:41.001Z,20.88
2023-02-14T11:31:09.365Z,23.65
2023-02-14T11:33:39.974Z,21.55
2023-02-14T11:36:11.967Z,24.50
2023-02-14T11:38:40.451Z,23.52
2023-02-14T11:41:09.536Z,21.48
2023-02-14T11:43:38.216Z,18.77
2023-02-14T11:46:08.432Z,21.58
2023-02-14T11:48:38.581Z,19.50
2023-02-14T11:51:09.340Z,21.27
2023-02-14T11:53:44.604Z,20.10
2023-02-14T11:56:12.560Z,20.13
2023-02-14T11:58:45.238Z,20.58
2023-02-14T12:01:20.154Z,19.95
2023-02-14T12:03:48.918Z,25.20
2023-02-14T12:06:25.473Z,20.05
2023-02-14T12:09:09.934Z,21.70
2023-02-14T12:11:38.161Z,20.90
2023-02-14T12:14:04.953Z,20.33
2023-02-14T12:16:38.943Z,19.08
2023-02-14T12:19:08.084Z,19.92
2023-02-14T12:21:57.985Z,22.67
2023-02-14T12:24:31.950Z,21.08
2023-02-14T12:27:06.339Z,21.50
2023-02-14T12:29:37.847Z,21.50
2023-02-14T12:32:16.366Z,20.35
2023-02-14T12:34:43.166Z,19.95
2023-02-14T12:37:30.823Z,21.05
2023-02-14T12:40:12.022Z,25.13
2023-02-14T12:42:54.411Z,22.20
2023-02-14T12:45:29.566Z,22.23
2023-02-14T12:48:05.138Z,20.80
2023-02-14T12:50:38.896Z,21.00
2023-02-14T12:53:40.223Z,22.75
2023-02-14T12:56:13.427Z,20.10
2023-02-14T12:58:51.852Z,21.98
2023-02-14T13:01:38.755Z,20.33
2023-02-14T13:04:40.975Z,21.35
2023-02-14T13:07:16.069Z,25.10
2023-02-14T13:09:48.753Z,20.85
2023-02-14T13:12:28.564Z,19.80
2023-02-14T13:15:04.522Z,21.05
2023-02-14T13:17:37.939Z,23.08
2023-02-14T13:20:34.690Z,20.17
2023-02-14T13:23:05.014Z,20.27
2023-02-14T13:25:37.408Z,19.27
2023-02-14T13:28:06.802Z,21.17
2023-02-14T13:30:35.350Z,20.00
2023-02-14T13:33:06.368Z,18.17
2023-02-14T13:35:34.321Z,22.15
2023-02-14T13:38:06.556Z,19.23
2023-02-14T13:40:36.167Z,20.10
2023-02-14T13:43:03.791Z,19.10
2023-02-14T13:46:03.835Z,18.63
2023-02-14T13:48:30.933Z,25.08
2023-02-14T13:51:00.301Z,21.92
2023-02-14T13:53:40.038Z,18.10
2023-02-14T13:56:32.466Z,20.70
2023-02-14T13:59:01.351Z,18.55
2023-02-14T14:03:59.591Z,20.65
2023-02-14T14:06:27.361Z,19.92
2023-02-14T14:08:55.090Z,18.50
2023-02-14T14:11:50.930Z,21.08
2023-02-14T14:14:30.797Z,18.60
2023-02-14T14:16:58.807Z,20.08
2023-02-14T14:19:39.975Z,19.03
2023-02-14T14:22:09.691Z,18.45
2023-02-14T14:24:39.624Z,17.23
2023-02-14T14:27:15.822Z,18.27
2023-02-14T14:29:47.110Z,17.60
2023-02-14T14:32:17.962Z,18.33
2023-02-14T14:34:49.707Z,18.73
2023-02-14T14:37:18.615Z,19.83
2023-02-14T14:42:19.156Z,20.90
2023-02-14T14:44:48.450Z,18.13
2023-02-14T14:47:19.633Z,21.35
2023-02-14T14:49:46.827Z,21.20
2023-02-14T14:52:28.986Z,18.95
2023-02-14T14:54:57.237Z,21.15
2023-02-14T14:57:25.574Z,25.85
2023-02-14T15:00:17.482Z,18.92
2023-02-14T15:02:55.714Z,20.35
2023-02-14T15:05:25.216Z,21.90
2023-02-14T15:07:54.139Z,24.33
2023-02-14T15:12:50.639Z,25.00
2023-02-14T15:17:46.759Z,21.83
2023-02-14T15:20:17.390Z,22.33
2023-02-14T15:22:46.338Z,20.83
2023-02-14T15:27:44.146Z,22.65
2023-02-14T15:30:26.895Z,23.10
2023-02-14T15:32:54.662Z,23.27
2023-02-14T15:35:24.962Z,23.70
2023-02-14T15:37:52.590Z,21.65
2023-02-14T15:40:23.896Z,20.73
2023-02-14T15:42:51.978Z,21.60
2023-02-14T15:45:23.124Z,21.80
2023-02-14T15:47:52.332Z,23.65
2023-02-14T15:50:20.892Z,23.85
2023-02-14T15:52:48.513Z,22.80
2023-02-14T15:55:18.841Z,26.58
2023-02-14T15:57:53.893Z,22.58
2023-02-14T16:00:23.759Z,23.67
2023-02-14T16:02:53.967Z,23.55
2023-02-14T16:05:23.143Z,26.38
2023-02-14T16:07:59.100Z,24.90
2023-02-14T16:10:27.479Z,24.35
2023-02-14T16:12:57.734Z,27.02
2023-02-14T16:15:28.330Z,20.80
2023-02-14T16:17:55.250Z,27.63
2023-02-14T16:20:29.045Z,25.85
2023-02-14T16:23:14.825Z,24.67
2023-02-14T16:25:42.070Z,28.13
2023-02-14T16:28:08.973Z,29.05
2023-02-14T16:30:37.816Z,31.63
2023-02-14T16:33:05.904Z,34.17
2023-02-14T16:35:33.095Z,35.17
2023-02-14T16:37:59.845Z,30.77
2023-02-14T16:40:28.504Z,31.70
2023-02-14T16:42:55.245Z,30.23
2023-02-14T16:45:22.076Z,28.80
2023-02-14T16:47:50.227Z,31.33
2023-02-14T16:50:17.540Z,32.22
2023-02-14T16:52:47.564Z,31.92
2023-02-14T16:55:16.312Z,27.05
2023-02-14T16:57:46.085Z,26.42
2023-02-14T17:00:14.434Z,27.17
2023-02-14T17:02:43.873Z,28.23
2023-02-14T17:05:12.621Z,27.00
2023-02-14T17:07:42.146Z,27.55
2023-02-14T17:10:14.190Z,28.50
2023-02-14T17:12:43.363Z,30.90
2023-02-14T17:15:14.982Z,28.73
2023-02-14T17:17:42.744Z,33.45
2023-02-14T17:20:10.291Z,29.90
2023-02-14T17:22:38.432Z,32.65
2023-02-14T17:25:06.129Z,30.40
2023-02-14T17:27:32.871Z,30.52
2023-02-14T17:29:59.699Z,26.58
2023-02-14T17:32:26.731Z,31.52
2023-02-14T17:34:53.560Z,30.20
2023-02-14T17:37:20.370Z,32.17
2023-02-14T17:39:48.422Z,27.88
2023-02-14T17:42:15.172Z,34.43
2023-02-14T17:44:41.954Z,33.72
2023-02-14T17:47:08.694Z,34.28
2023-02-14T17:49:35.406Z,29.98
2023-02-14T17:52:02.497Z,33.05
2023-02-14T17:54:29.321Z,30.98
2023-02-14T17:56:57.441Z,30.60
2023-02-14T17:59:24.203Z,33.90
2023-02-14T18:01:51.023Z,31.70
2023-02-14T18:04:18.052Z,32.40
2023-02-14T18:06:44.858Z,38.83
2023-02-14T18:09:11.634Z,36.70
2023-02-14T18:11:40.150Z,40.05
2023-02-14T18:14:08.802Z,41.13
2023-02-14T18:16:37.856Z,34.28
2023-02-14T18:21:33.040Z,33.85
2023-02-14T18:24:00.211Z,34.55
2023-02-14T18:26:29.302Z,33.50
2023-02-14T18:31:24.015Z,34.65
2023-02-14T18:33:50.987Z,32.45
2023-02-14T18:36:20.990Z,34.35
2023-02-14T18:38:48.945Z,35.80
2023-02-14T18:41:18.161Z,33.88
2023-02-14T18:43:45.306Z,40.00
2023-02-14T18:46:13.720Z,37.00
2023-02-14T18:48:42.304Z,39.72
2023-02-14T18:51:11.045Z,39.30
2023-02-14T18:53:38.996Z,38.70
2023-02-14T18:56:06.963Z,44.90
2023-02-14T18:58:34.245Z,40.22
2023-02-14T19:01:07.989Z,37.85
2023-02-14T19:03:34.806Z,40.30
2023-02-14T19:06:03.182Z,37.00
2023-02-14T19:08:31.030Z,39.00
2023-02-14T19:10:58.036Z,41.83
2023-02-14T19:13:24.984Z,39.83
2023-02-14T19:15:52.185Z,39.22
2023-02-14T19:18:18.948Z,36.08
2023-02-14T19:20:45.727Z,37.40
2023-02-14T19:23:13.900Z,37.20
2023-02-14T19:25:40.615Z,43.75
2023-02-14T19:28:07.342Z,37.30
2023-02-14T19:30:34.094Z,37.25
2023-02-14T19:33:00.849Z,40.03
2023-02-14T19:35:27.603Z,34.75
2023-02-14T19:37:54.489Z,36.30
2023-02-14T19:40:24.115Z,41.05
2023-02-14T19:42:52.137Z,38.45
2023-02-14T19:45:18.897Z,38.43
2023-02-14T19:47:47.351Z,39.97
2023-02-14T19:50:14.690Z,37.85
2023-02-14T19:52:41.407Z,41.83
2023-02-14T19:55:08.304Z,38.20
2023-02-14T19:57:38.729Z,35.83
2023-02-14T20:00:06.904Z,37.88
2023-02-14T20:02:33.622Z,37.88
2023-02-14T20:05:00.352Z,36.33
2023-02-14T20:07:27.231Z,40.90
2023-02-14T20:09:55.114Z,39.45
2023-02-14T20:12:21.797Z,46.90
2023-02-14T20:14:51.655Z,50.50
2023-02-14T20:17:19.555Z,48.70
2023-02-14T20:19:46.323Z,45.17
2023-02-14T20:22:13.034Z,45.92
2023-02-14T20:24:39.900Z,44.45
2023-02-14T20:27:06.653Z,43.60
2023-02-14T20:29:33.359Z,40.63
2023-02-14T20:32:01.526Z,38.53
2023-02-14T20:34:28.557Z,38.90
2023-02-14T20:36:55.782Z,41.35
2023-02-14T20:39:28.316Z,42.45
2023-02-14T20:41:55.271Z,44.25
2023-02-14T20:44:22.601Z,40.10
2023-02-14T20:46:51.402Z,42.10
2023-02-14T20:49:19.914Z,38.92
2023-02-14T20:51:47.482Z,37.75
2023-02-14T20:54:14.220Z,42.88
2023-02-14T20:56:40.951Z,45.13
2023-02-14T20:59:09.689Z,41.13
2023-02-14T21:01:38.310Z,42.47
2023-02-14T21:04:05.476Z,45.00
2023-02-14T21:06:35.513Z,41.47
2023-02-14T21:09:02.792Z,44.22
2023-02-14T21:11:29.707Z,44.45
2023-02-14T21:13:59.744Z,46.35
2023-02-14T21:16:28.078Z,41.28
2023-02-14T21:18:57.238Z,49.87
2023-02-14T21:21:29.143Z,48.10
2023-02-14T21:23:57.312Z,48.50
2023-02-14T21:26:24.235Z,51.35
2023-02-14T21:28:51.618Z,52.15
2023-02-14T21:31:20.612Z,53.83
2023-02-14T21:36:18.196Z,48.17
2023-02-14T21:41:15.135Z,38.72
2023-02-14T21:43:43.590Z,45.30
2023-02-14T21:46:12.152Z,45.13
2023-02-14T21:48:39.493Z,49.78
2023-02-14T21:51:07.037Z,47.05
2023-02-14T21:53:33.948Z,46.70
2023-02-14T21:56:05.346Z,48.28
2023-02-14T21:58:33.439Z,45.28
2023-02-14T22:01:00.517Z,47.70
2023-02-14T22:03:27.540Z,48.13
2023-02-14T22:06:01.517Z,46.47
2023-02-14T22:08:28.723Z,45.90
2023-02-14T22:10:55.697Z,47.90
2023-02-14T22:13:22.645Z,47.67
2023-02-14T22:15:51.768Z,47.22
2023-02-14T22:18:18.759Z,48.92
2023-02-14T22:20:45.503Z,45.08
2023-02-14T22:23:12.214Z,45.70
2023-02-14T22:25:38.952Z,50.80
2023-02-14T22:28:05.796Z,45.80
2023-02-14T22:30:32.545Z,44.50
2023-02-14T22:33:00.600Z,49.85
2023-02-14T22:35:27.357Z,49.77
2023-02-14T22:37:54.107Z,42.50
2023-02-14T22:40:20.993Z,44.05
2023-02-14T22:42:47.748Z,43.92
2023-02-14T22:45:14.553Z,44.63
2023-02-14T22:47:41.336Z,43.45
2023-02-14T22:50:12.288Z,43.00
2023-02-14T22:52:39.042Z,46.22
2023-02-14T22:55:06.543Z,50.22
2023-02-14T22:57:33.335Z,46.97
2023-02-14T23:00:00.097Z,50.55
2023-02-14T23:02:26.984Z,53.50
2023-02-14T23:04:55.138Z,45.72
2023-02-14T23:07:24.976Z,47.45
2023-02-14T23:09:53.216Z,47.93
2023-02-14T23:12:20.340Z,47.28
2023-02-14T23:14:47.118Z,50.38
2023-02-14T23:17:15.665Z,44.88
2023-02-14T23:19:43.100Z,46.25
2023-02-14T23:22:12.308Z,40.40
2023-02-14T23:24:41.233Z,40.17
2023-02-14T23:27:09.491Z,38.65
2023-02-14T23:29:36.964Z,45.35
2023-02-14T23:32:04.413Z,43.42
2023-02-14T23:34:33.381Z,40.97
2023-02-14T23:39:29.156Z,37.95
2023-02-14T23:44:25.070Z,37.30
2023-02-14T23:46:53.827Z,37.10
2023-02-14T23:49:20.993Z,38.15
2023-02-14T23:51:49.061Z,40.40
2023-02-14T23:54:16.846Z,45.83
2023-02-14T23:56:44.333Z,42.97
2023-02-14T23:59:14.122Z,42.15
